sensor_id;sensor_type;location;lat;lon;timestamp;P1;durP1;ratioP1;P2;durP2;ratioP2
70866;SDS011;58487;53.474;49.470;2023-04-08T00:00:12;10.85;;;5.50;;
70866;SDS011;58487;53.474;49.470;2023-04-08T00:02:38;9.98;;;5.50;;
70866;SDS011;58487;53.474;49.470;2023-04-08T00:05:05;12.37;;;5.50;;
70866;SDS011;58487;53.474;49.470;2023-04-08T00:07:31;9.80;;;5.30;;
70866;SDS011;58487;53.474;49.470;2023-04-08T00:09:58;9.55;;;5.57;;
70866;SDS011;58487;53.474;49.470;2023-04-08T00:12:24;10.07;;;5.10;;
70866;SDS011;58487;53.474;49.470;2023-04-08T00:14:50;10.48;;;5.63;;
70866;SDS011;58487;53.474;49.470;2023-04-08T00:17:16;10.83;;;5.00;;
70866;SDS011;58487;53.474;49.470;2023-04-08T00:19:42;11.80;;;5.35;;
70866;SDS011;58487;53.474;49.470;2023-04-08T00:22:09;12.07;;;5.28;;
70866;SDS011;58487;53.474;49.470;2023-04-08T00:24:36;10.05;;;4.95;;
70866;SDS011;58487;53.474;49.470;2023-04-08T00:27:02;10.77;;;5.63;;
70866;SDS011;58487;53.474;49.470;2023-04-08T00:29:28;11.07;;;6.10;;
70866;SDS011;58487;53.474;49.470;2023-04-08T00:31:55;11.02;;;5.95;;
70866;SDS011;58487;53.474;49.470;2023-04-08T00:34:21;13.80;;;6.03;;
70866;SDS011;58487;53.474;49.470;2023-04-08T00:36:47;11.75;;;6.40;;
70866;SDS011;58487;53.474;49.470;2023-04-08T00:39:13;11.45;;;6.70;;
70866;SDS011;58487;53.474;49.470;2023-04-08T00:41:40;13.57;;;6.67;;
70866;SDS011;58487;53.474;49.470;2023-04-08T00:44:06;11.30;;;6.40;;
70866;SDS011;58487;53.474;49.470;2023-04-08T00:46:33;10.95;;;5.97;;
70866;SDS011;58487;53.474;49.470;2023-04-08T00:49:02;9.52;;;5.47;;
70866;SDS011;58487;53.474;49.470;2023-04-08T00:51:29;11.48;;;5.50;;
70866;SDS011;58487;53.474;49.470;2023-04-08T00:53:58;11.13;;;5.30;;
70866;SDS011;58487;53.474;49.470;2023-04-08T00:56:25;10.60;;;5.10;;
70866;SDS011;58487;53.474;49.470;2023-04-08T00:58:51;10.10;;;5.50;;
70866;SDS011;58487;53.474;49.470;2023-04-08T01:04:04;9.80;;;4.95;;
70866;SDS011;58487;53.474;49.470;2023-04-08T01:06:40;10.07;;;5.17;;
70866;SDS011;58487;53.474;49.470;2023-04-08T01:09:13;9.90;;;4.82;;
70866;SDS011;58487;53.474;49.470;2023-04-08T01:11:43;9.05;;;4.70;;
70866;SDS011;58487;53.474;49.470;2023-04-08T01:14:14;11.40;;;5.40;;
70866;SDS011;58487;53.474;49.470;2023-04-08T01:16:44;9.63;;;5.20;;
70866;SDS011;58487;53.474;49.470;2023-04-08T01:19:13;10.30;;;5.50;;
70866;SDS011;58487;53.474;49.470;2023-04-08T01:21:50;9.80;;;5.47;;
70866;SDS011;58487;53.474;49.470;2023-04-08T01:24:21;9.85;;;4.82;;
70866;SDS011;58487;53.474;49.470;2023-04-08T01:26:51;10.15;;;4.50;;
70866;SDS011;58487;53.474;49.470;2023-04-08T01:29:21;9.32;;;4.85;;
70866;SDS011;58487;53.474;49.470;2023-04-08T01:31:48;10.87;;;4.60;;
70866;SDS011;58487;53.474;49.470;2023-04-08T01:34:15;12.57;;;5.10;;
70866;SDS011;58487;53.474;49.470;2023-04-08T01:36:44;9.52;;;5.22;;
70866;SDS011;58487;53.474;49.470;2023-04-08T01:39:11;10.77;;;4.60;;
70866;SDS011;58487;53.474;49.470;2023-04-08T01:41:41;10.68;;;5.10;;
70866;SDS011;58487;53.474;49.470;2023-04-08T01:44:07;10.63;;;5.60;;
70866;SDS011;58487;53.474;49.470;2023-04-08T01:46:35;10.90;;;5.30;;
70866;SDS011;58487;53.474;49.470;2023-04-08T01:49:06;11.60;;;5.55;;
70866;SDS011;58487;53.474;49.470;2023-04-08T01:51:33;11.82;;;4.80;;
70866;SDS011;58487;53.474;49.470;2023-04-08T01:54:00;14.63;;;4.95;;
70866;SDS011;58487;53.474;49.470;2023-04-08T01:56:28;9.50;;;4.70;;
70866;SDS011;58487;53.474;49.470;2023-04-08T01:58:57;11.23;;;4.50;;
70866;SDS011;58487;53.474;49.470;2023-04-08T02:01:26;10.27;;;5.25;;
70866;SDS011;58487;53.474;49.470;2023-04-08T02:03:54;8.45;;;4.32;;
70866;SDS011;58487;53.474;49.470;2023-04-08T02:06:22;11.70;;;4.57;;
70866;SDS011;58487;53.474;49.470;2023-04-08T02:08:51;9.17;;;4.20;;
70866;SDS011;58487;53.474;49.470;2023-04-08T02:11:17;9.73;;;4.85;;
70866;SDS011;58487;53.474;49.470;2023-04-08T02:13:43;10.77;;;4.45;;
70866;SDS011;58487;53.474;49.470;2023-04-08T02:16:21;10.30;;;5.05;;
70866;SDS011;58487;53.474;49.470;2023-04-08T02:18:55;11.50;;;5.50;;
70866;SDS011;58487;53.474;49.470;2023-04-08T02:21:26;10.37;;;5.10;;
70866;SDS011;58487;53.474;49.470;2023-04-08T02:23:58;11.80;;;4.55;;
70866;SDS011;58487;53.474;49.470;2023-04-08T02:26:29;10.93;;;5.00;;
70866;SDS011;58487;53.474;49.470;2023-04-08T02:28:59;12.50;;;4.68;;
70866;SDS011;58487;53.474;49.470;2023-04-08T02:31:36;11.07;;;5.10;;
70866;SDS011;58487;53.474;49.470;2023-04-08T02:34:05;11.47;;;4.80;;
70866;SDS011;58487;53.474;49.470;2023-04-08T02:36:34;9.50;;;4.95;;
70866;SDS011;58487;53.474;49.470;2023-04-08T02:39:00;8.73;;;4.60;;
70866;SDS011;58487;53.474;49.470;2023-04-08T02:41:27;12.25;;;5.10;;
70866;SDS011;58487;53.474;49.470;2023-04-08T02:43:55;9.90;;;4.70;;
70866;SDS011;58487;53.474;49.470;2023-04-08T02:46:21;16.17;;;5.00;;
70866;SDS011;58487;53.474;49.470;2023-04-08T02:48:47;10.43;;;5.07;;
70866;SDS011;58487;53.474;49.470;2023-04-08T02:51:13;13.32;;;4.07;;
70866;SDS011;58487;53.474;49.470;2023-04-08T02:53:39;12.43;;;4.70;;
70866;SDS011;58487;53.474;49.470;2023-04-08T02:56:08;10.45;;;4.78;;
70866;SDS011;58487;53.474;49.470;2023-04-08T02:58:35;14.23;;;4.70;;
70866;SDS011;58487;53.474;49.470;2023-04-08T03:01:01;10.40;;;4.88;;
70866;SDS011;58487;53.474;49.470;2023-04-08T03:03:27;9.55;;;4.63;;
70866;SDS011;58487;53.474;49.470;2023-04-08T03:05:55;12.63;;;4.63;;
70866;SDS011;58487;53.474;49.470;2023-04-08T03:08:22;9.20;;;4.22;;
70866;SDS011;58487;53.474;49.470;2023-04-08T03:10:48;8.57;;;4.13;;
70866;SDS011;58487;53.474;49.470;2023-04-08T03:13:15;11.02;;;4.97;;
70866;SDS011;58487;53.474;49.470;2023-04-08T03:15:41;8.73;;;4.00;;
70866;SDS011;58487;53.474;49.470;2023-04-08T03:18:07;8.65;;;4.30;;
70866;SDS011;58487;53.474;49.470;2023-04-08T03:20:33;10.40;;;3.90;;
70866;SDS011;58487;53.474;49.470;2023-04-08T03:23:00;8.67;;;4.13;;
70866;SDS011;58487;53.474;49.470;2023-04-08T03:25:26;9.88;;;4.00;;
70866;SDS011;58487;53.474;49.470;2023-04-08T03:27:53;8.45;;;3.75;;
70866;SDS011;58487;53.474;49.470;2023-04-08T03:30:20;7.57;;;3.55;;
70866;SDS011;58487;53.474;49.470;2023-04-08T03:32:46;12.43;;;4.70;;
70866;SDS011;58487;53.474;49.470;2023-04-08T03:35:12;9.57;;;3.70;;
70866;SDS011;58487;53.474;49.470;2023-04-08T03:37:38;10.15;;;3.67;;
70866;SDS011;58487;53.474;49.470;2023-04-08T03:40:04;12.70;;;4.35;;
70866;SDS011;58487;53.474;49.470;2023-04-08T03:42:31;8.68;;;3.72;;
70866;SDS011;58487;53.474;49.470;2023-04-08T03:44:58;8.50;;;3.40;;
70866;SDS011;58487;53.474;49.470;2023-04-08T03:47:25;9.10;;;3.77;;
70866;SDS011;58487;53.474;49.470;2023-04-08T03:49:52;9.32;;;4.20;;
70866;SDS011;58487;53.474;49.470;2023-04-08T03:52:19;8.98;;;4.10;;
70866;SDS011;58487;53.474;49.470;2023-04-08T03:54:49;7.82;;;3.25;;
70866;SDS011;58487;53.474;49.470;2023-04-08T03:57:19;7.43;;;3.45;;
70866;SDS011;58487;53.474;49.470;2023-04-08T03:59:45;9.07;;;3.60;;
70866;SDS011;58487;53.474;49.470;2023-04-08T04:02:11;9.60;;;3.88;;
70866;SDS011;58487;53.474;49.470;2023-04-08T04:04:37;10.13;;;4.30;;
70866;SDS011;58487;53.474;49.470;2023-04-08T04:07:03;8.05;;;3.70;;
70866;SDS011;58487;53.474;49.470;2023-04-08T04:09:29;8.80;;;3.67;;
70866;SDS011;58487;53.474;49.470;2023-04-08T04:11:55;8.87;;;3.40;;
70866;SDS011;58487;53.474;49.470;2023-04-08T04:14:21;8.25;;;2.97;;
70866;SDS011;58487;53.474;49.470;2023-04-08T04:16:47;8.45;;;3.45;;
70866;SDS011;58487;53.474;49.470;2023-04-08T04:19:13;8.65;;;3.22;;
70866;SDS011;58487;53.474;49.470;2023-04-08T04:21:40;8.07;;;3.22;;
70866;SDS011;58487;53.474;49.470;2023-04-08T04:24:06;8.27;;;3.57;;
70866;SDS011;58487;53.474;49.470;2023-04-08T04:26:32;7.43;;;3.25;;
70866;SDS011;58487;53.474;49.470;2023-04-08T04:28:58;8.07;;;1.48;;
70866;SDS011;58487;53.474;49.470;2023-04-08T04:31:24;9.63;;;3.20;;
70866;SDS011;58487;53.474;49.470;2023-04-08T04:33:53;6.72;;;3.10;;
70866;SDS011;58487;53.474;49.470;2023-04-08T04:36:19;10.17;;;3.20;;
70866;SDS011;58487;53.474;49.470;2023-04-08T04:38:45;6.00;;;3.00;;
70866;SDS011;58487;53.474;49.470;2023-04-08T04:41:11;5.32;;;2.38;;
70866;SDS011;58487;53.474;49.470;2023-04-08T04:43:37;7.63;;;2.80;;
70866;SDS011;58487;53.474;49.470;2023-04-08T04:46:04;9.73;;;3.03;;
70866;SDS011;58487;53.474;49.470;2023-04-08T04:48:33;7.43;;;3.00;;
70866;SDS011;58487;53.474;49.470;2023-04-08T04:51:00;7.85;;;2.90;;
70866;SDS011;58487;53.474;49.470;2023-04-08T04:53:30;7.47;;;3.08;;
70866;SDS011;58487;53.474;49.470;2023-04-08T04:55:56;6.70;;;2.58;;
70866;SDS011;58487;53.474;49.470;2023-04-08T04:58:22;7.05;;;3.00;;
70866;SDS011;58487;53.474;49.470;2023-04-08T05:00:48;6.53;;;3.20;;
70866;SDS011;58487;53.474;49.470;2023-04-08T05:03:14;6.88;;;3.25;;
70866;SDS011;58487;53.474;49.470;2023-04-08T05:05:40;7.10;;;3.33;;
70866;SDS011;58487;53.474;49.470;2023-04-08T05:08:06;8.32;;;3.40;;
70866;SDS011;58487;53.474;49.470;2023-04-08T05:10:32;6.68;;;2.92;;
70866;SDS011;58487;53.474;49.470;2023-04-08T05:12:58;7.00;;;3.33;;
70866;SDS011;58487;53.474;49.470;2023-04-08T05:15:25;6.95;;;3.05;;
70866;SDS011;58487;53.474;49.470;2023-04-08T05:17:51;9.57;;;3.47;;
70866;SDS011;58487;53.474;49.470;2023-04-08T05:20:17;12.93;;;3.97;;
70866;SDS011;58487;53.474;49.470;2023-04-08T05:22:43;6.87;;;3.10;;
70866;SDS011;58487;53.474;49.470;2023-04-08T05:25:09;9.35;;;3.78;;
70866;SDS011;58487;53.474;49.470;2023-04-08T05:27:36;8.95;;;3.90;;
70866;SDS011;58487;53.474;49.470;2023-04-08T05:30:02;8.32;;;3.63;;
70866;SDS011;58487;53.474;49.470;2023-04-08T05:32:29;6.88;;;3.20;;
70866;SDS011;58487;53.474;49.470;2023-04-08T05:34:55;9.00;;;3.63;;
70866;SDS011;58487;53.474;49.470;2023-04-08T05:37:21;7.13;;;3.10;;
70866;SDS011;58487;53.474;49.470;2023-04-08T05:39:47;9.40;;;3.05;;
70866;SDS011;58487;53.474;49.470;2023-04-08T05:42:13;6.50;;;3.40;;
70866;SDS011;58487;53.474;49.470;2023-04-08T05:44:39;7.33;;;3.30;;
70866;SDS011;58487;53.474;49.470;2023-04-08T05:47:08;8.73;;;3.83;;
70866;SDS011;58487;53.474;49.470;2023-04-08T05:49:34;6.63;;;3.30;;
70866;SDS011;58487;53.474;49.470;2023-04-08T05:52:00;7.18;;;3.38;;
70866;SDS011;58487;53.474;49.470;2023-04-08T05:54:28;10.25;;;3.25;;
70866;SDS011;58487;53.474;49.470;2023-04-08T05:56:54;5.83;;;2.87;;
70866;SDS011;58487;53.474;49.470;2023-04-08T05:59:20;6.28;;;2.65;;
70866;SDS011;58487;53.474;49.470;2023-04-08T06:01:46;5.65;;;2.95;;
70866;SDS011;58487;53.474;49.470;2023-04-08T06:04:12;5.72;;;2.90;;
70866;SDS011;58487;53.474;49.470;2023-04-08T06:06:38;6.78;;;3.15;;
70866;SDS011;58487;53.474;49.470;2023-04-08T06:09:04;6.40;;;3.17;;
70866;SDS011;58487;53.474;49.470;2023-04-08T06:11:30;9.05;;;3.67;;
70866;SDS011;58487;53.474;49.470;2023-04-08T06:13:57;7.57;;;3.28;;
70866;SDS011;58487;53.474;49.470;2023-04-08T06:16:23;8.82;;;3.20;;
70866;SDS011;58487;53.474;49.470;2023-04-08T06:18:49;8.88;;;3.55;;
70866;SDS011;58487;53.474;49.470;2023-04-08T06:21:15;7.73;;;3.77;;
70866;SDS011;58487;53.474;49.470;2023-04-08T06:23:41;8.23;;;3.10;;
70866;SDS011;58487;53.474;49.470;2023-04-08T06:26:07;7.20;;;3.40;;
70866;SDS011;58487;53.474;49.470;2023-04-08T06:28:33;8.80;;;3.40;;
70866;SDS011;58487;53.474;49.470;2023-04-08T06:30:59;7.28;;;3.00;;
70866;SDS011;58487;53.474;49.470;2023-04-08T06:33:25;7.17;;;3.20;;
70866;SDS011;58487;53.474;49.470;2023-04-08T06:36:03;7.95;;;3.15;;
70866;SDS011;58487;53.474;49.470;2023-04-08T06:38:30;9.93;;;3.20;;
70866;SDS011;58487;53.474;49.470;2023-04-08T06:41:14;6.25;;;2.92;;
70866;SDS011;58487;53.474;49.470;2023-04-08T06:43:40;8.57;;;3.50;;
70866;SDS011;58487;53.474;49.470;2023-04-08T06:46:06;9.17;;;3.90;;
70866;SDS011;58487;53.474;49.470;2023-04-08T06:48:32;7.20;;;3.08;;
70866;SDS011;58487;53.474;49.470;2023-04-08T06:50:59;7.93;;;2.88;;
70866;SDS011;58487;53.474;49.470;2023-04-08T06:53:26;7.78;;;3.28;;
70866;SDS011;58487;53.474;49.470;2023-04-08T06:55:57;11.55;;;4.22;;
70866;SDS011;58487;53.474;49.470;2023-04-08T06:58:23;8.23;;;3.93;;
70866;SDS011;58487;53.474;49.470;2023-04-08T07:00:49;8.82;;;3.45;;
70866;SDS011;58487;53.474;49.470;2023-04-08T07:03:15;6.57;;;3.30;;
70866;SDS011;58487;53.474;49.470;2023-04-08T07:05:41;6.70;;;3.05;;
70866;SDS011;58487;53.474;49.470;2023-04-08T07:08:07;7.53;;;3.30;;
70866;SDS011;58487;53.474;49.470;2023-04-08T07:10:33;7.60;;;2.90;;
70866;SDS011;58487;53.474;49.470;2023-04-08T07:13:00;6.63;;;2.67;;
70866;SDS011;58487;53.474;49.470;2023-04-08T07:15:26;9.70;;;2.70;;
70866;SDS011;58487;53.474;49.470;2023-04-08T07:17:52;6.95;;;2.60;;
70866;SDS011;58487;53.474;49.470;2023-04-08T07:20:21;8.15;;;3.40;;
70866;SDS011;58487;53.474;49.470;2023-04-08T07:22:48;5.07;;;2.63;;
70866;SDS011;58487;53.474;49.470;2023-04-08T07:25:14;6.68;;;2.58;;
70866;SDS011;58487;53.474;49.470;2023-04-08T07:27:40;7.72;;;3.67;;
70866;SDS011;58487;53.474;49.470;2023-04-08T07:30:07;10.15;;;2.80;;
70866;SDS011;58487;53.474;49.470;2023-04-08T07:32:33;8.15;;;3.17;;
70866;SDS011;58487;53.474;49.470;2023-04-08T07:34:59;6.17;;;2.83;;
70866;SDS011;58487;53.474;49.470;2023-04-08T07:37:26;6.30;;;2.88;;
70866;SDS011;58487;53.474;49.470;2023-04-08T07:39:52;9.27;;;3.53;;
70866;SDS011;58487;53.474;49.470;2023-04-08T07:42:18;7.53;;;2.97;;
70866;SDS011;58487;53.474;49.470;2023-04-08T07:44:44;6.20;;;2.92;;
70866;SDS011;58487;53.474;49.470;2023-04-08T07:47:11;7.07;;;3.10;;
70866;SDS011;58487;53.474;49.470;2023-04-08T07:49:38;6.63;;;3.05;;
70866;SDS011;58487;53.474;49.470;2023-04-08T07:52:04;9.43;;;2.90;;
70866;SDS011;58487;53.474;49.470;2023-04-08T07:54:31;8.65;;;3.20;;
70866;SDS011;58487;53.474;49.470;2023-04-08T07:57:00;7.80;;;2.92;;
70866;SDS011;58487;53.474;49.470;2023-04-08T07:59:27;7.50;;;2.60;;
70866;SDS011;58487;53.474;49.470;2023-04-08T08:01:54;6.40;;;2.65;;
70866;SDS011;58487;53.474;49.470;2023-04-08T08:04:20;7.05;;;2.60;;
70866;SDS011;58487;53.474;49.470;2023-04-08T08:06:52;13.25;;;3.00;;
70866;SDS011;58487;53.474;49.470;2023-04-08T08:09:18;7.72;;;2.70;;
70866;SDS011;58487;53.474;49.470;2023-04-08T08:11:45;5.87;;;2.60;;
70866;SDS011;58487;53.474;49.470;2023-04-08T08:14:11;6.72;;;3.22;;
70866;SDS011;58487;53.474;49.470;2023-04-08T08:16:38;5.88;;;2.40;;
70866;SDS011;58487;53.474;49.470;2023-04-08T08:19:04;6.68;;;3.15;;
70866;SDS011;58487;53.474;49.470;2023-04-08T08:21:32;6.30;;;2.60;;
70866;SDS011;58487;53.474;49.470;2023-04-08T08:23:58;7.13;;;2.60;;
70866;SDS011;58487;53.474;49.470;2023-04-08T08:26:24;7.80;;;2.78;;
70866;SDS011;58487;53.474;49.470;2023-04-08T08:28:50;6.28;;;2.50;;
70866;SDS011;58487;53.474;49.470;2023-04-08T08:31:16;9.00;;;2.75;;
70866;SDS011;58487;53.474;49.470;2023-04-08T08:33:42;9.20;;;2.50;;
70866;SDS011;58487;53.474;49.470;2023-04-08T08:36:08;8.23;;;2.97;;
70866;SDS011;58487;53.474;49.470;2023-04-08T08:38:34;7.65;;;2.30;;
70866;SDS011;58487;53.474;49.470;2023-04-08T08:41:00;8.57;;;2.40;;
70866;SDS011;58487;53.474;49.470;2023-04-08T08:43:28;7.40;;;2.97;;
70866;SDS011;58487;53.474;49.470;2023-04-08T08:45:58;6.55;;;2.13;;
70866;SDS011;58487;53.474;49.470;2023-04-08T08:48:24;7.17;;;2.60;;
70866;SDS011;58487;53.474;49.470;2023-04-08T08:50:50;12.63;;;2.92;;
70866;SDS011;58487;53.474;49.470;2023-04-08T08:53:16;7.13;;;2.28;;
70866;SDS011;58487;53.474;49.470;2023-04-08T08:55:44;7.47;;;2.60;;
70866;SDS011;58487;53.474;49.470;2023-04-08T08:58:10;5.95;;;2.60;;
70866;SDS011;58487;53.474;49.470;2023-04-08T09:00:40;7.03;;;2.50;;
70866;SDS011;58487;53.474;49.470;2023-04-08T09:05:52;6.50;;;2.75;;
70866;SDS011;58487;53.474;49.470;2023-04-08T09:08:30;5.63;;;2.85;;
70866;SDS011;58487;53.474;49.470;2023-04-08T09:11:10;7.15;;;2.47;;
70866;SDS011;58487;53.474;49.470;2023-04-08T09:13:39;5.40;;;2.40;;
70866;SDS011;58487;53.474;49.470;2023-04-08T09:16:10;6.05;;;2.70;;
70866;SDS011;58487;53.474;49.470;2023-04-08T09:18:39;6.60;;;2.85;;
70866;SDS011;58487;53.474;49.470;2023-04-08T09:21:09;8.82;;;3.17;;
70866;SDS011;58487;53.474;49.470;2023-04-08T09:23:40;6.80;;;2.38;;
70866;SDS011;58487;53.474;49.470;2023-04-08T09:26:11;6.53;;;2.60;;
70866;SDS011;58487;53.474;49.470;2023-04-08T09:28:42;8.85;;;3.20;;
70866;SDS011;58487;53.474;49.470;2023-04-08T09:31:25;7.03;;;3.40;;
70866;SDS011;58487;53.474;49.470;2023-04-08T09:33:54;5.82;;;2.80;;
70866;SDS011;58487;53.474;49.470;2023-04-08T09:36:24;8.32;;;3.28;;
70866;SDS011;58487;53.474;49.470;2023-04-08T09:38:54;5.77;;;2.70;;
70866;SDS011;58487;53.474;49.470;2023-04-08T09:41:21;7.80;;;3.22;;
70866;SDS011;58487;53.474;49.470;2023-04-08T09:43:52;9.27;;;3.60;;
70866;SDS011;58487;53.474;49.470;2023-04-08T09:46:24;7.28;;;3.40;;
70866;SDS011;58487;53.474;49.470;2023-04-08T09:52:18;5.80;;;2.93;;
70866;SDS011;58487;53.474;49.470;2023-04-08T09:54:57;9.70;;;3.17;;
70866;SDS011;58487;53.474;49.470;2023-04-08T09:57:39;7.22;;;3.47;;
70866;SDS011;58487;53.474;49.470;2023-04-08T10:38:14;8.57;;;3.40;;
70866;SDS011;58487;53.474;49.470;2023-04-08T10:40:42;7.18;;;3.20;;
70866;SDS011;58487;53.474;49.470;2023-04-08T10:43:09;7.88;;;3.33;;
70866;SDS011;58487;53.474;49.470;2023-04-08T10:45:38;6.38;;;3.38;;
70866;SDS011;58487;53.474;49.470;2023-04-08T10:50:37;9.70;;;3.40;;
70866;SDS011;58487;53.474;49.470;2023-04-08T10:53:04;7.38;;;3.58;;
70866;SDS011;58487;53.474;49.470;2023-04-08T10:55:30;10.80;;;3.50;;
70866;SDS011;58487;53.474;49.470;2023-04-08T10:58:08;6.45;;;3.28;;
70866;SDS011;58487;53.474;49.470;2023-04-08T11:00:36;8.23;;;4.00;;
70866;SDS011;58487;53.474;49.470;2023-04-08T11:03:04;8.60;;;3.43;;
70866;SDS011;58487;53.474;49.470;2023-04-08T11:05:32;7.70;;;3.30;;
70866;SDS011;58487;53.474;49.470;2023-04-08T11:07:59;7.40;;;3.30;;
70866;SDS011;58487;53.474;49.470;2023-04-08T11:10:26;5.38;;;3.17;;
70866;SDS011;58487;53.474;49.470;2023-04-08T11:12:53;6.80;;;3.00;;
70866;SDS011;58487;53.474;49.470;2023-04-08T11:15:20;6.50;;;3.20;;
70866;SDS011;58487;53.474;49.470;2023-04-08T11:17:50;7.75;;;3.45;;
70866;SDS011;58487;53.474;49.470;2023-04-08T11:20:16;6.32;;;3.00;;
70866;SDS011;58487;53.474;49.470;2023-04-08T11:22:43;6.43;;;3.42;;
70866;SDS011;58487;53.474;49.470;2023-04-08T11:25:10;8.23;;;3.67;;
70866;SDS011;58487;53.474;49.470;2023-04-08T11:27:36;7.07;;;3.80;;
70866;SDS011;58487;53.474;49.470;2023-04-08T11:30:04;7.50;;;3.22;;
70866;SDS011;58487;53.474;49.470;2023-04-08T11:32:32;9.43;;;3.40;;
70866;SDS011;58487;53.474;49.470;2023-04-08T11:35:00;8.88;;;4.05;;
70866;SDS011;58487;53.474;49.470;2023-04-08T11:37:37;12.52;;;3.70;;
70866;SDS011;58487;53.474;49.470;2023-04-08T11:40:10;9.27;;;3.40;;
70866;SDS011;58487;53.474;49.470;2023-04-08T11:42:37;5.70;;;2.90;;
70866;SDS011;58487;53.474;49.470;2023-04-08T11:45:11;6.20;;;3.67;;
70866;SDS011;58487;53.474;49.470;2023-04-08T11:47:38;7.38;;;3.80;;
70866;SDS011;58487;53.474;49.470;2023-04-08T11:50:05;6.85;;;3.50;;
70866;SDS011;58487;53.474;49.470;2023-04-08T11:52:48;5.77;;;3.13;;
70866;SDS011;58487;53.474;49.470;2023-04-08T11:55:28;5.70;;;3.17;;
70866;SDS011;58487;53.474;49.470;2023-04-08T11:58:00;6.10;;;3.40;;
70866;SDS011;58487;53.474;49.470;2023-04-08T12:00:28;8.02;;;3.00;;
70866;SDS011;58487;53.474;49.470;2023-04-08T12:02:54;6.30;;;3.08;;
70866;SDS011;58487;53.474;49.470;2023-04-08T12:05:20;7.17;;;3.53;;
70866;SDS011;58487;53.474;49.470;2023-04-08T12:07:46;8.20;;;3.38;;
70866;SDS011;58487;53.474;49.470;2023-04-08T12:10:15;10.82;;;3.92;;
70866;SDS011;58487;53.474;49.470;2023-04-08T12:12:41;6.20;;;2.80;;
70866;SDS011;58487;53.474;49.470;2023-04-08T12:15:07;6.80;;;2.90;;
70866;SDS011;58487;53.474;49.470;2023-04-08T12:17:34;6.10;;;3.03;;
70866;SDS011;58487;53.474;49.470;2023-04-08T12:20:00;5.85;;;2.80;;
70866;SDS011;58487;53.474;49.470;2023-04-08T12:22:32;7.82;;;3.30;;
70866;SDS011;58487;53.474;49.470;2023-04-08T12:24:58;7.15;;;3.42;;
70866;SDS011;58487;53.474;49.470;2023-04-08T12:27:27;6.10;;;3.47;;
70866;SDS011;58487;53.474;49.470;2023-04-08T12:29:53;6.53;;;3.37;;
70866;SDS011;58487;53.474;49.470;2023-04-08T12:32:19;6.75;;;3.70;;
70866;SDS011;58487;53.474;49.470;2023-04-08T12:34:46;8.88;;;3.50;;
70866;SDS011;58487;53.474;49.470;2023-04-08T12:37:12;7.38;;;3.60;;
70866;SDS011;58487;53.474;49.470;2023-04-08T12:39:38;6.68;;;4.10;;
70866;SDS011;58487;53.474;49.470;2023-04-08T12:42:04;10.10;;;4.27;;
70866;SDS011;58487;53.474;49.470;2023-04-08T12:44:30;9.90;;;3.88;;
70866;SDS011;58487;53.474;49.470;2023-04-08T12:46:56;8.77;;;3.95;;
70866;SDS011;58487;53.474;49.470;2023-04-08T12:49:23;7.30;;;3.90;;
70866;SDS011;58487;53.474;49.470;2023-04-08T12:51:50;6.53;;;3.50;;
70866;SDS011;58487;53.474;49.470;2023-04-08T12:54:16;5.90;;;3.50;;
70866;SDS011;58487;53.474;49.470;2023-04-08T12:56:43;5.95;;;3.28;;
70866;SDS011;58487;53.474;49.470;2023-04-08T12:59:10;7.63;;;3.65;;
70866;SDS011;58487;53.474;49.470;2023-04-08T13:01:36;6.50;;;3.15;;
70866;SDS011;58487;53.474;49.470;2023-04-08T13:04:03;6.30;;;3.55;;
70866;SDS011;58487;53.474;49.470;2023-04-08T13:06:28;6.50;;;3.40;;
70866;SDS011;58487;53.474;49.470;2023-04-08T13:08:56;7.38;;;3.55;;
70866;SDS011;58487;53.474;49.470;2023-04-08T13:11:22;6.35;;;3.35;;
70866;SDS011;58487;53.474;49.470;2023-04-08T13:13:48;7.72;;;3.70;;
70866;SDS011;58487;53.474;49.470;2023-04-08T13:16:14;6.30;;;3.20;;
70866;SDS011;58487;53.474;49.470;2023-04-08T13:18:41;5.47;;;3.27;;
70866;SDS011;58487;53.474;49.470;2023-04-08T13:21:07;5.55;;;2.90;;
70866;SDS011;58487;53.474;49.470;2023-04-08T13:23:33;8.27;;;3.50;;
70866;SDS011;58487;53.474;49.470;2023-04-08T13:26:00;5.50;;;2.83;;
70866;SDS011;58487;53.474;49.470;2023-04-08T13:28:26;6.50;;;3.58;;
70866;SDS011;58487;53.474;49.470;2023-04-08T13:30:51;6.13;;;3.37;;
70866;SDS011;58487;53.474;49.470;2023-04-08T13:33:18;7.32;;;3.78;;
70866;SDS011;58487;53.474;49.470;2023-04-08T13:35:46;6.55;;;3.60;;
70866;SDS011;58487;53.474;49.470;2023-04-08T13:38:13;6.80;;;3.90;;
70866;SDS011;58487;53.474;49.470;2023-04-08T13:40:39;11.07;;;4.20;;
70866;SDS011;58487;53.474;49.470;2023-04-08T13:43:05;9.33;;;5.33;;
70866;SDS011;58487;53.474;49.470;2023-04-08T13:45:31;13.93;;;6.13;;
70866;SDS011;58487;53.474;49.470;2023-04-08T13:47:57;10.25;;;6.60;;
70866;SDS011;58487;53.474;49.470;2023-04-08T13:50:24;13.20;;;7.50;;
70866;SDS011;58487;53.474;49.470;2023-04-08T13:53:01;13.80;;;7.50;;
70866;SDS011;58487;53.474;49.470;2023-04-08T13:55:27;14.53;;;8.13;;
70866;SDS011;58487;53.474;49.470;2023-04-08T13:57:53;13.60;;;8.60;;
70866;SDS011;58487;53.474;49.470;2023-04-08T14:00:20;16.83;;;9.40;;
70866;SDS011;58487;53.474;49.470;2023-04-08T14:02:46;15.55;;;9.25;;
70866;SDS011;58487;53.474;49.470;2023-04-08T14:05:12;17.02;;;9.23;;
70866;SDS011;58487;53.474;49.470;2023-04-08T14:07:38;16.33;;;10.53;;
70866;SDS011;58487;53.474;49.470;2023-04-08T14:10:04;16.33;;;9.40;;
70866;SDS011;58487;53.474;49.470;2023-04-08T14:12:32;17.02;;;11.30;;
70866;SDS011;58487;53.474;49.470;2023-04-08T14:14:57;18.08;;;10.65;;
70866;SDS011;58487;53.474;49.470;2023-04-08T14:17:23;16.13;;;9.68;;
70866;SDS011;58487;53.474;49.470;2023-04-08T14:19:49;20.43;;;10.63;;
70866;SDS011;58487;53.474;49.470;2023-04-08T14:22:16;18.27;;;10.68;;
70866;SDS011;58487;53.474;49.470;2023-04-08T14:24:43;18.73;;;10.98;;
70866;SDS011;58487;53.474;49.470;2023-04-08T14:27:09;20.15;;;11.07;;
70866;SDS011;58487;53.474;49.470;2023-04-08T14:29:35;17.45;;;10.15;;
70866;SDS011;58487;53.474;49.470;2023-04-08T14:32:01;17.47;;;9.80;;
70866;SDS011;58487;53.474;49.470;2023-04-08T14:34:27;15.55;;;9.70;;
70866;SDS011;58487;53.474;49.470;2023-04-08T14:36:53;15.73;;;9.50;;
70866;SDS011;58487;53.474;49.470;2023-04-08T14:39:19;18.20;;;9.35;;
70866;SDS011;58487;53.474;49.470;2023-04-08T14:41:46;16.17;;;8.23;;
70866;SDS011;58487;53.474;49.470;2023-04-08T14:44:12;13.37;;;8.23;;
70866;SDS011;58487;53.474;49.470;2023-04-08T14:46:38;16.30;;;8.35;;
70866;SDS011;58487;53.474;49.470;2023-04-08T14:49:04;17.63;;;8.07;;
70866;SDS011;58487;53.474;49.470;2023-04-08T14:51:31;13.98;;;7.50;;
70866;SDS011;58487;53.474;49.470;2023-04-08T14:53:57;14.38;;;7.65;;
70866;SDS011;58487;53.474;49.470;2023-04-08T14:56:24;16.57;;;6.70;;
70866;SDS011;58487;53.474;49.470;2023-04-08T14:58:50;15.02;;;6.65;;
70866;SDS011;58487;53.474;49.470;2023-04-08T15:01:16;14.68;;;7.50;;
70866;SDS011;58487;53.474;49.470;2023-04-08T15:03:42;13.23;;;6.30;;
70866;SDS011;58487;53.474;49.470;2023-04-08T15:06:08;19.10;;;7.22;;
70866;SDS011;58487;53.474;49.470;2023-04-08T15:08:34;14.87;;;6.87;;
70866;SDS011;58487;53.474;49.470;2023-04-08T15:11:00;14.30;;;6.35;;
70866;SDS011;58487;53.474;49.470;2023-04-08T15:13:26;12.63;;;6.43;;
70866;SDS011;58487;53.474;49.470;2023-04-08T15:15:52;13.35;;;7.25;;
70866;SDS011;58487;53.474;49.470;2023-04-08T15:18:18;14.00;;;6.67;;
70866;SDS011;58487;53.474;49.470;2023-04-08T15:20:44;15.18;;;7.40;;